Time;durP1;ratioP1;P1;durP2;ratioP2;P2;SDS_P1;SDS_P2;PMS_P1;PMS_P2;Temp;Humidity;BMP_temperature;BMP_pressure;BME280_temperature;BME280_humidity;BME280_pressure;Samples;Min_cycle;Max_cycle;Signal;HPM_P1;HPM_P2
2023/01/01 00:00:46;;;;;;;3.95;2.00;;;13.70;99.90;;;;;;4768287;30;20066;-91
2023/01/01 00:03:13;;;;;;;0.35;0.35;;;13.60;99.90;;;;;;4774219;30;20116;-90
2023/01/01 00:05:49;;;;;;;;;;;;;;;;;;;;;
2023/01/01 00:08:18;;;;;;;1.02;0.80;;;13.60;99.90;;;;;;4776132;30;20059;-91
2023/01/01 00:10:49;;;;;;;0.85;0.85;;;13.50;99.90;;;;;;4760844;30;20088;-90
2023/01/01 00:13:27;;;;;;;;;;;;;;;;;;;;;
2023/01/01 00:16:20;;;;;;;0.30;0.30;;;13.40;99.90;;;;;;4762533;30;20565;-91
2023/01/01 00:19:09;;;;;;;0.45;0.45;;;13.40;99.90;;;;;;4775476;30;20055;-91
2023/01/01 00:21:58;;;;;;;;;;;;;;;;;;;;;
2023/01/01 00:24:41;;;;;;;1.73;0.50;;;13.40;99.90;;;;;;4763598;30;20138;-91
2023/01/01 00:27:35;;;;;;;1.13;0.95;;;13.40;99.90;;;;;;4761880;30;20524;-90
2023/01/01 00:30:27;;;;;;;;;;;;;;;;;;;;;
2023/01/01 00:33:33;;;;;;;1.83;1.05;;;13.50;99.90;;;;;;4749887;30;20096;-91
2023/01/01 00:36:49;;;;;;;;;;;13.50;99.90;;;;;;4761002;30;20412;-91
2023/01/01 00:39:38;;;;;;;1.23;1.17;;;13.50;99.90;;;;;;4774619;30;19925;-91
2023/01/01 00:48:32;;;;;;;0.25;0.25;;;13.60;99.90;;;;;;4774707;30;20055;-91
2023/01/01 00:51:19;;;;;;;;;;;;;;;;;;;;;
2023/01/01 00:54:14;;;;;;;8.82;1.70;;;13.70;99.90;;;;;;4762204;30;20048;-90
2023/01/01 00:57:30;;;;;;;1.58;1.48;;;13.60;99.90;;;;;;4763413;30;20105;-91
2023/01/01 01:00:12;;;;;;;0.35;0.20;;;13.60;99.90;;;;;;4756616;30;20063;-91
2023/01/01 01:03:01;;;;;;;3.45;0.75;;;13.60;99.90;;;;;;4775928;30;20085;-92
2023/01/01 01:06:20;;;;;;;;;;;;;;;;;;;;;
2023/01/01 01:12:02;;;;;;;0.47;0.47;;;13.50;99.90;;;;;;4764047;30;20066;-91
2023/01/01 01:14:59;;;;;;;0.43;0.22;;;13.50;99.90;;;;;;4761545;30;20055;-91
2023/01/01 01:17:50;;;;;;;0.65;0.65;;;13.50;99.90;;;;;;4760641;30;20059;-91
2023/01/01 01:20:31;;;;;;;;;;;;;;;;;;;;;
2023/01/01 01:23:19;;;;;;;1.38;1.27;;;13.50;99.90;;;;;;4761168;30;20094;-91
2023/01/01 01:25:58;;;;;;;;;;;;;;;;;;;;;
2023/01/01 01:28:45;;;;;;;0.13;0.03;;;13.60;99.90;;;;;;4761246;30;20507;-92
2023/01/01 01:31:19;;;;;;;0.17;0.17;;;13.60;99.90;;;;;;4760529;30;20498;-90
2023/01/01 01:33:52;;;;;;;1.97;1.70;;;13.60;99.90;;;;;;4774375;30;20560;-91
2023/01/01 01:36:20;;;;;;;3.60;1.02;;;13.70;99.90;;;;;;4774022;30;20053;-91
2023/01/01 01:39:02;;;;;;;4.43;1.42;;;13.70;99.90;;;;;;4775134;30;20055;-91
2023/01/01 01:41:30;;;;;;;0.85;0.85;;;13.70;99.90;;;;;;4745784;30;20051;-91
2023/01/01 01:44:31;;;;;;;0.10;0.10;;;13.80;99.90;;;;;;4773826;29;20531;-91
2023/01/01 01:47:04;;;;;;;0.28;0.28;;;13.70;99.90;;;;;;4785848;30;20051;-91
2023/01/01 01:49:42;;;;;;;0.55;0.55;;;13.80;99.90;;;;;;4758193;30;20094;-91
2023/01/01 01:52:42;;;;;;;0.10;0.10;;;13.70;99.90;;;;;;4773934;30;20120;-91
2023/01/01 01:55:12;;;;;;;0.63;0.38;;;13.70;99.90;;;;;;4759606;30;20065;-91
2023/01/01 01:57:58;;;;;;;;;;;;;;;;;;;;;
2023/01/01 02:00:34;;;;;;;1.27;1.17;;;13.60;99.90;;;;;;4774972;30;20062;-91
2023/01/01 02:03:19;;;;;;;0.57;0.57;;;13.60;99.90;;;;;;4760058;30;20047;-91
2023/01/01 02:05:59;;;;;;;;;;;;;;;;;;;;;
2023/01/01 02:08:35;;;;;;;0.35;0.35;;;13.60;99.90;;;;;;4773209;30;20051;-91
2023/01/01 02:11:09;;;;;;;1.65;1.08;;;13.60;99.90;;;;;;4774041;30;20061;-91
2023/01/01 02:13:35;;;;;;;0.70;0.63;;;13.60;99.90;;;;;;4745747;30;20134;-90
2023/01/01 02:16:17;;;;;;;;;;;;;;;;;;;;;
2023/01/01 02:19:22;;;;;;;0.38;0.38;;;13.50;99.90;;;;;;4773949;30;20070;-90
2023/01/01 02:21:56;;;;;;;1.77;1.38;;;13.60;99.90;;;;;;4761685;30;20052;-90
2023/01/01 02:24:46;;;;;;;0.20;0.10;;;13.50;99.90;;;;;;4777206;30;20428;-91
2023/01/01 02:27:44;;;;;;;0.38;0.38;;;13.50;99.90;;;;;;4777876;30;20063;-91
2023/01/01 02:30:26;;;;;;;1.38;1.27;;;13.50;99.90;;;;;;4777045;30;20056;-90
2023/01/01 02:33:06;;;;;;;0.20;0.20;;;13.60;99.90;;;;;;4777329;30;20512;-91
2023/01/01 02:35:41;;;;;;;0.52;0.28;;;13.60;99.90;;;;;;4777167;30;20063;-90
2023/01/01 02:38:09;;;;;;;0.30;0.28;;;13.60;99.90;;;;;;4777120;30;20059;-90
2023/01/01 02:41:11;;;;;;;1.85;0.95;;;13.60;99.90;;;;;;4762424;30;20055;-90
2023/01/01 02:43:50;;;;;;;;;;;;;;;;;;;;;
2023/01/01 02:46:20;;;;;;;1.38;0.52;;;13.60;99.90;;;;;;4794887;29;20063;-89
2023/01/01 02:48:54;;;;;;;0.00;0.00;;;13.60;99.90;;;;;;4794596;29;20051;-89
2023/01/01 02:52:07;;;;;;;;;;;;;;;;;;;;;
2023/01/01 02:55:15;;;;;;;;;;;;;;;;;;;;;
2023/01/01 03:01:03;;;;;;;;;;;13.70;99.90;;;;;;4795723;29;20504;-91
2023/01/01 03:03:49;;;;;;;1.85;0.45;;;13.70;99.90;;;;;;4795076;29;19925;-90
2023/01/01 03:06:33;;;;;;;1.00;0.10;;;13.70;99.90;;;;;;4794620;29;20057;-90
2023/01/01 03:09:04;;;;;;;0.15;0.15;;;13.70;99.90;;;;;;4795434;29;20107;-90
2023/01/01 03:12:13;;;;;;;;;;;;;;;;;;;;;
2023/01/01 03:15:17;;;;;;;1.20;0.38;;;13.80;99.90;;;;;;4794932;29;20485;-90
2023/01/01 03:17:54;;;;;;;0.20;0.20;;;13.80;99.90;;;;;;4772640;29;20096;-90
2023/01/01 03:20:34;;;;;;;;;;;;;;;;;;;;;
2023/01/01 03:23:34;;;;;;;;;;;;;;;;;;;;;
2023/01/01 03:29:50;;;;;;;0.10;0.10;;;14.00;99.90;;;;;;4789342;29;20055;-90
2023/01/01 03:33:07;;;;;;;0.40;0.22;;;13.90;99.90;;;;;;4778603;29;20066;-91
2023/01/01 03:36:04;;;;;;;0.00;0.00;;;13.90;99.90;;;;;;4795223;29;20051;-90
2023/01/01 03:39:00;;;;;;;0.00;0.00;;;14.00;99.90;;;;;;4794184;29;20058;-90
2023/01/01 03:42:04;;;;;;;;;;;;;;;;;;;;;
2023/01/01 03:48:01;;;;;;;1.65;0.50;;;13.90;99.90;;;;;;4794793;29;20470;-91
2023/01/01 03:51:59;;;;;;;;;;;;;;;;;;;;;
2023/01/01 03:54:53;;;;;;;0.73;0.52;;;13.90;99.90;;;;;;4769103;29;20059;-90
2023/01/01 03:57:49;;;;;;;0.10;0.10;;;14.00;99.90;;;;;;4779652;29;20070;-91
2023/01/01 04:01:22;;;;;;;0.00;0.00;;;14.00;99.90;;;;;;4779086;29;20055;-90
2023/01/01 04:04:25;;;;;;;;;;;;;;;;;;;;;
2023/01/01 04:06:54;;;;;;;0.65;0.45;;;14.00;99.90;;;;;;4782799;29;20058;-89
2023/01/01 04:09:50;;;;;;;0.00;0.00;;;14.10;99.90;;;;;;4793367;29;20138;-91
2023/01/01 04:12:38;;;;;;;0.00;0.00;;;14.10;99.90;;;;;;4793828;29;20055;-90
2023/01/01 04:15:15;;;;;;;1.10;0.63;;;14.10;99.90;;;;;;4766790;29;20108;-90
2023/01/01 04:17:44;;;;;;;0.10;0.10;;;14.10;99.90;;;;;;4808395;29;20119;-91
2023/01/01 04:20:25;;;;;;;0.10;0.10;;;14.10;99.90;;;;;;4792928;29;20489;-91
2023/01/01 04:22:58;;;;;;;0.00;0.00;;;14.10;99.90;;;;;;4793656;29;20046;-91
2023/01/01 04:25:33;;;;;;;0.20;0.13;;;14.00;99.90;;;;;;4794219;29;20047;-91
2023/01/01 04:28:02;;;;;;;0.20;0.20;;;14.00;99.90;;;;;;4793444;29;20047;-91
2023/01/01 04:30:51;;;;;;;0.73;0.03;;;14.00;99.90;;;;;;4763058;29;20054;-90
2023/01/01 04:33:34;;;;;;;;;;;;;;;;;;;;;
2023/01/01 04:36:39;;;;;;;;;;;;;;;;;;;;;
2023/01/01 04:39:05;;;;;;;0.10;0.10;;;14.10;99.90;;;;;;4794016;29;20055;-90
2023/01/01 04:41:50;;;;;;;0.10;0.00;;;14.10;99.90;;;;;;4792908;29;20053;-91
2023/01/01 04:44:23;;;;;;;0.20;0.10;;;14.10;99.90;;;;;;4779828;29;20062;-90
2023/01/01 04:47:09;;;;;;;0.10;0.10;;;14.10;99.90;;;;;;4793769;29;20138;-90
2023/01/01 04:49:55;;;;;;;16.77;1.30;;;14.10;99.90;;;;;;4780927;29;20051;-90
2023/01/01 04:52:28;;;;;;;0.00;0.00;;;14.10;99.90;;;;;;4792814;29;20055;-90
2023/01/01 04:54:59;;;;;;;0.63;0.30;;;14.10;99.90;;;;;;4764584;29;20051;-89
2023/01/01 04:57:32;;;;;;;0.13;0.00;;;14.10;99.90;;;;;;4778182;29;20065;-89
2023/01/01 05:00:09;;;;;;;0.00;0.00;;;14.00;99.90;;;;;;4778238;29;20054;-90
2023/01/01 05:02:50;;;;;;;0.32;0.20;;;14.10;99.90;;;;;;4792759;29;20120;-91
2023/01/01 05:05:24;;;;;;;0.10;0.10;;;14.00;99.90;;;;;;4764924;29;20059;-90
2023/01/01 05:08:01;;;;;;;0.00;0.00;;;14.00;99.90;;;;;;4779802;29;20055;-89
2023/01/01 05:10:28;;;;;;;0.20;0.20;;;14.00;99.90;;;;;;4794921;29;20059;-90
2023/01/01 05:12:58;;;;;;;0.20;0.15;;;14.00;99.90;;;;;;4814568;29;20042;-88
2023/01/01 05:15:27;;;;;;;0.00;0.00;;;14.00;99.90;;;;;;4801277;29;20054;-90
2023/01/01 05:18:11;;;;;;;;;;;;;;;;;;;;;
2023/01/01 05:20:42;;;;;;;0.00;0.00;;;13.90;99.90;;;;;;4792590;29;20131;-90
2023/01/01 05:23:20;;;;;;;0.15;0.10;;;13.90;99.90;;;;;;4777060;29;20058;-89
2023/01/01 05:25:56;;;;;;;0.00;0.00;;;13.90;99.90;;;;;;4777311;29;20059;-89
2023/01/01 05:28:26;;;;;;;0.52;0.28;;;13.80;99.90;;;;;;4756360;29;20436;-90
2023/01/01 05:31:08;;;;;;;;;;;;;;;;;;;;;
2023/01/01 05:33:37;;;;;;;0.85;0.10;;;13.80;99.90;;;;;;4778794;29;20050;-91
2023/01/01 05:36:10;;;;;;;0.00;0.00;;;13.80;99.90;;;;;;4792837;29;20058;-89
2023/01/01 05:38:47;;;;;;;0.45;0.08;;;13.70;99.90;;;;;;4792028;29;20047;-90
2023/01/01 05:41:24;;;;;;;0.00;0.00;;;13.70;99.90;;;;;;4791174;29;20058;-90
2023/01/01 05:44:10;;;;;;;;;;;;;;;;;;;;;
2023/01/01 05:46:39;;;;;;;2.47;1.13;;;13.60;99.90;;;;;;4803115;29;20094;-90
2023/01/01 05:49:39;;;;;;;0.00;0.00;;;13.60;99.90;;;;;;4793571;29;20507;-91
2023/01/01 05:52:27;;;;;;;0.00;0.00;;;13.50;99.90;;;;;;4777143;29;20138;-90
2023/01/01 05:55:07;;;;;;;;;;;;;;;;;;;;;
2023/01/01 05:57:43;;;;;;;0.00;0.00;;;13.50;99.90;;;;;;4778159;29;20069;-90
2023/01/01 06:00:27;;;;;;;;;;;;;;;;;;;;;
2023/01/01 06:03:02;;;;;;;0.10;0.10;;;13.40;99.90;;;;;;4778273;29;20047;-89
2023/01/01 06:05:41;;;;;;;;;;;13.30;99.90;;;;;;4763078;29;20395;-90
2023/01/01 06:08:27;;;;;;;0.10;0.10;;;13.30;99.90;;;;;;4778133;29;19925;-90
2023/01/01 06:11:00;;;;;;;0.57;0.22;;;13.30;99.90;;;;;;4791684;29;20057;-89
2023/01/01 06:13:38;;;;;;;1.55;0.28;;;13.30;99.90;;;;;;4791735;29;20061;-90
2023/01/01 06:16:22;;;;;;;0.00;0.00;;;13.30;99.90;;;;;;4776416;29;20133;-90
2023/01/01 06:18:55;;;;;;;0.10;0.10;;;13.20;99.90;;;;;;4791828;29;20055;-89
2023/01/01 06:21:30;;;;;;;0.00;0.00;;;13.20;99.90;;;;;;4776474;29;20053;-90
2023/01/01 06:24:05;;;;;;;0.00;0.00;;;13.20;99.90;;;;;;4791638;29;20050;-89
2023/01/01 06:29:49;;;;;;;0.00;0.00;;;13.10;99.90;;;;;;4785024;29;20059;-90
2023/01/01 06:32:42;;;;;;;0.00;0.00;;;13.10;99.90;;;;;;4776702;29;20050;-89
2023/01/01 06:35:17;;;;;;;0.00;0.00;;;13.10;99.90;;;;;;4777176;29;20051;-89
2023/01/01 06:37:43;;;;;;;0.00;0.00;;;13.00;99.90;;;;;;4791500;29;20207;-89
2023/01/01 06:40:19;;;;;;;0.10;0.10;;;13.00;99.90;;;;;;4796435;29;20134;-90
2023/01/01 06:42:54;;;;;;;0.35;0.15;;;13.00;99.90;;;;;;4766788;29;20059;-90
2023/01/01 06:45:50;;;;;;;;;;;;;;;;;;;;;
2023/01/01 06:48:31;;;;;;;;;;;;;;;;;;;;;
2023/01/01 06:51:17;;;;;;;0.00;0.00;;;12.90;99.90;;;;;;4791232;29;20114;-91
2023/01/01 06:54:00;;;;;;;0.00;0.00;;;12.90;99.90;;;;;;4791920;29;20466;-92
2023/01/01 06:56:44;;;;;;;;;;;;;;;;;;;;;
2023/01/01 06:59:15;;;;;;;0.00;0.00;;;12.90;99.90;;;;;;4791726;29;20207;-91
2023/01/01 07:01:44;;;;;;;0.00;0.00;;;12.80;99.90;;;;;;4791190;29;20054;-91
2023/01/01 07:04:27;;;;;;;0.00;0.00;;;12.80;99.90;;;;;;4792302;29;20142;-91
2023/01/01 07:07:30;;;;;;;0.00;0.00;;;12.80;99.90;;;;;;4793855;29;20179;-91
2023/01/01 07:10:01;;;;;;;0.00;0.00;;;12.80;99.90;;;;;;4794590;29;20492;-92
2023/01/01 07:12:50;;;;;;;0.00;0.00;;;12.80;99.90;;;;;;4795164;29;20054;-91
2023/01/01 07:16:25;;;;;;;0.00;0.00;;;12.80;99.90;;;;;;4794556;29;20066;-92
2023/01/01 07:18:51;;;;;;;0.57;0.25;;;12.80;99.90;;;;;;4785029;29;20050;-89
2023/01/01 07:21:42;;;;;;;0.05;0.05;;;12.80;99.90;;;;;;4788063;29;20062;-89
2023/01/01 07:24:42;;;;;;;;;;;;;;;;;;;;;
2023/01/01 07:27:11;;;;;;;0.10;0.10;;;12.80;99.90;;;;;;4794806;29;20129;-91
2023/01/01 07:29:39;;;;;;;0.00;0.00;;;12.80;99.90;;;;;;4795410;29;20090;-92
2023/01/01 07:32:12;;;;;;;0.65;0.10;;;12.70;99.90;;;;;;4794528;29;20137;-90
2023/01/01 07:34:48;;;;;;;;;;;;;;;;;;;;;
2023/01/01 07:37:33;;;;;;;1.50;0.55;;;12.70;99.90;;;;;;4795120;29;20082;-93
2023/01/01 07:40:13;;;;;;;0.00;0.00;;;12.70;99.90;;;;;;4809308;29;20059;-91
2023/01/01 07:42:42;;;;;;;0.00;0.00;;;12.70;99.90;;;;;;4788866;30;20059;-92
2023/01/01 07:45:11;;;;;;;0.00;0.00;;;12.70;99.90;;;;;;4775984;30;20134;-90
2023/01/01 07:47:49;;;;;;;2.47;0.00;;;12.70;99.90;;;;;;4776125;30;20078;-90
2023/01/01 07:50:39;;;;;;;;;;;;;;;;;;;;;
2023/01/01 07:53:07;;;;;;;0.20;0.20;;;12.70;99.90;;;;;;4776474;30;20059;-91
2023/01/01 07:55:48;;;;;;;;;;;;;;;;;;;;;
2023/01/01 08:05:09;;;;;;;0.52;0.30;;;12.60;99.90;;;;;;4766286;30;20063;-91
2023/01/01 08:08:39;;;;;;;;;;;;;;;;;;;;;
2023/01/01 08:12:11;;;;;;;0.00;0.00;;;12.60;99.90;;;;;;4782505;30;20067;-90
2023/01/01 08:15:09;;;;;;;;;;;;;;;;;;;;;
2023/01/01 08:18:18;;;;;;;;;;;;;;;;;;;;;
2023/01/01 08:20:49;;;;;;;1.55;1.15;;;12.50;99.90;;;;;;4775235;30;20062;-88
2023/01/01 08:23:28;;;;;;;0.00;0.00;;;12.50;99.90;;;;;;4775468;30;20412;-89
2023/01/01 08:25:58;;;;;;;0.00;0.00;;;12.40;99.90;;;;;;4776400;30;20116;-89
2023/01/01 08:28:36;;;;;;;;;;;;;;;;;;;;;
2023/01/01 08:31:12;;;;;;;4.70;0.47;;;12.40;99.90;;;;;;4775445;30;20059;-89
2023/01/01 08:33:43;;;;;;;0.00;0.00;;;12.40;99.90;;;;;;4760625;30;20061;-89
2023/01/01 08:36:29;;;;;;;;;;;;;;;;;;;;;
2023/01/01 08:38:55;;;;;;;0.00;0.00;;;12.40;99.90;;;;;;4793412;30;20071;-89
2023/01/01 08:41:30;;;;;;;0.00;0.00;;;12.30;99.90;;;;;;4769211;30;20051;-89
2023/01/01 08:44:05;;;;;;;2.67;0.52;;;12.30;99.90;;;;;;4775809;29;20119;-89
2023/01/01 08:46:36;;;;;;;0.00;0.00;;;12.30;99.90;;;;;;4792153;29;20141;-89
2023/01/01 08:49:12;;;;;;;0.80;0.47;;;12.30;99.90;;;;;;4792390;29;20047;-89
2023/01/01 08:51:49;;;;;;;0.10;0.10;;;12.30;99.90;;;;;;4777846;29;20103;-89
2023/01/01 08:54:17;;;;;;;0.00;0.00;;;12.30;99.90;;;;;;4777407;29;20066;-89
2023/01/01 08:57:00;;;;;;;0.05;0.00;;;12.00;99.90;;;;;;4763927;29;20051;-90
2023/01/01 08:59:28;;;;;;;0.00;0.00;;;12.30;99.90;;;;;;4778972;29;20397;-89
2023/01/01 09:01:59;;;;;;;0.00;0.00;;;12.30;99.90;;;;;;4759837;30;20039;-90
2023/01/01 09:04:30;;;;;;;0.00;0.00;;;12.30;99.90;;;;;;4777668;29;20099;-91
2023/01/01 09:07:05;;;;;;;0.15;0.00;;;12.30;99.90;;;;;;4808167;29;20054;-90
2023/01/01 09:09:38;;;;;;;3.35;0.60;;;12.30;99.90;;;;;;4778087;29;20054;-91
2023/01/01 09:12:12;;;;;;;0.00;0.00;;;12.30;99.90;;;;;;4793640;29;20051;-91
2023/01/01 09:14:48;;;;;;;1.08;0.20;;;12.30;99.90;;;;;;4808540;29;20070;-90
2023/01/01 09:17:21;;;;;;;0.00;0.00;;;12.30;99.90;;;;;;4793159;29;20133;-88
2023/01/01 09:19:49;;;;;;;0.00;0.00;;;12.30;99.90;;;;;;4792413;29;20066;-90
2023/01/01 09:22:18;;;;;;;0.10;0.10;;;12.30;99.90;;;;;;4793252;29;20073;-89
2023/01/01 09:24:49;;;;;;;0.10;0.10;;;12.30;99.90;;;;;;4779626;29;20046;-91
2023/01/01 09:27:15;;;;;;;0.00;0.00;;;12.30;99.90;;;;;;4829468;29;20045;-89
2023/01/01 09:29:40;;;;;;;0.15;0.05;;;12.30;99.90;;;;;;4821621;29;20082;-90
2023/01/01 09:32:17;;;;;;;0.00;0.00;;;12.40;99.90;;;;;;4787998;29;20051;-91
2023/01/01 09:34:55;;;;;;;;;;;;;;;;;;;;;
2023/01/01 09:37:26;;;;;;;0.00;0.00;;;12.50;99.90;;;;;;4792415;29;20051;-88
2023/01/01 09:40:35;;;;;;;0.00;0.00;;;12.70;99.90;;;;;;4777404;29;20133;-88
2023/01/01 09:43:01;;;;;;;0.03;0.03;;;12.90;99.90;;;;;;4801413;29;20519;-90
2023/01/01 09:46:12;;;;;;;;;;;;;;;;;;;;;
2023/01/01 09:49:17;;;;;;;0.00;0.00;;;13.30;99.90;;;;;;4789424;29;20054;-89
2023/01/01 09:52:04;;;;;;;1.40;0.35;;;13.30;99.90;;;;;;4786718;29;20062;-89
2023/01/01 09:54:52;;;;;;;;;;;;;;;;;;;;;
2023/01/01 09:57:38;;;;;;;0.00;0.00;;;13.40;99.90;;;;;;4786372;29;20117;-88
2023/01/01 10:00:19;;;;;;;0.00;0.00;;;13.50;99.90;;;;;;4773740;29;20059;-89
2023/01/01 10:03:02;;;;;;;0.00;0.00;;;13.60;99.90;;;;;;4797315;29;20438;-89
2023/01/01 10:06:04;;;;;;;0.85;0.00;;;13.80;99.90;;;;;;4782456;30;20058;-89
2023/01/01 10:08:56;;;;;;;0.00;0.00;;;14.20;99.90;;;;;;4781228;29;20117;-88
2023/01/01 10:11:44;;;;;;;0.63;0.52;;;14.30;99.90;;;;;;4775190;29;20128;-88
2023/01/01 10:14:59;;;;;;;0.00;0.00;;;14.20;99.90;;;;;;4772735;30;20048;-89
2023/01/01 10:18:00;;;;;;;;;;;;;;;;;;;;;
2023/01/01 10:21:00;;;;;;;0.00;0.00;;;13.60;99.90;;;;;;4789976;29;20059;-88
2023/01/01 10:23:39;;;;;;;0.00;0.00;;;13.40;99.90;;;;;;4769076;29;20050;-89
2023/01/01 10:26:20;;;;;;;0.00;0.00;;;13.30;99.90;;;;;;4787836;29;20059;-89
2023/01/01 10:29:02;;;;;;;0.10;0.10;;;13.20;99.90;;;;;;4772407;29;20058;-89
2023/01/01 10:31:55;;;;;;;0.25;0.22;;;13.30;99.90;;;;;;4773759;29;20134;-89
2023/01/01 10:34:38;;;;;;;;;;;;;;;;;;;;;
2023/01/01 10:37:19;;;;;;;1.42;0.32;;;13.50;99.90;;;;;;4789301;29;21272;-89
2023/01/01 10:39:54;;;;;;;0.00;0.00;;;13.70;99.90;;;;;;4804747;29;20086;-88
2023/01/01 10:42:27;;;;;;;1.77;0.57;;;14.00;99.90;;;;;;4777584;29;20590;-89
2023/01/01 10:45:08;;;;;;;;;;;;;;;;;;;;;
2023/01/01 10:47:37;;;;;;;0.00;0.00;;;14.10;99.90;;;;;;4790584;29;20059;-88
2023/01/01 10:50:23;;;;;;;0.05;0.05;;;14.00;99.90;;;;;;4792430;29;20047;-90
2023/01/01 10:53:01;;;;;;;0.00;0.00;;;14.00;99.90;;;;;;4793695;29;20510;-89
2023/01/01 10:55:37;;;;;;;0.70;0.25;;;13.90;99.90;;;;;;4746593;29;20065;-89
2023/01/01 10:58:55;;;;;;;0.20;0.20;;;13.80;99.90;;;;;;4793705;29;20062;-89
2023/01/01 11:02:00;;;;;;;0.00;0.00;;;13.80;99.90;;;;;;4731303;30;20526;-88
2023/01/01 11:04:40;;;;;;;;;;;;;;;;;;;;;
2023/01/01 11:07:27;;;;;;;;;;;;;;;;;;;;;
2023/01/01 11:10:00;;;;;;;0.80;0.60;;;13.60;99.90;;;;;;4789179;29;20059;-89
2023/01/01 11:12:59;;;;;;;0.00;0.00;;;13.60;99.90;;;;;;4792031;29;20458;-89
2023/01/01 11:15:44;;;;;;;0.00;0.00;;;14.00;99.90;;;;;;4782760;29;20048;-89
2023/01/01 11:18:32;;;;;;;0.05;0.05;;;14.60;99.90;;;;;;4790498;29;20085;-88
2023/01/01 11:21:06;;;;;;;0.00;0.00;;;15.10;99.90;;;;;;4789938;29;20050;-88
2023/01/01 11:23:44;;;;;;;0.00;0.00;;;15.50;99.90;;;;;;4778255;29;20172;-88
2023/01/01 11:26:30;;;;;;;;;;;;;;;;;;;;;
2023/01/01 11:29:07;;;;;;;0.00;0.00;;;16.60;99.90;;;;;;4794447;29;20066;-89
2023/01/01 11:31:43;;;;;;;0.00;0.00;;;17.20;99.90;;;;;;4795011;29;20375;-90
2023/01/01 11:34:26;;;;;;;0.00;0.00;;;16.90;99.90;;;;;;4795043;29;20046;-89
2023/01/01 11:37:21;;;;;;;1.38;0.63;;;16.20;99.90;;;;;;4794720;29;20066;-90
2023/01/01 11:39:53;;;;;;;0.00;0.00;;;15.40;99.90;;;;;;4779313;29;20450;-87
2023/01/01 11:43:13;;;;;;;;;;;;;;;;;;;;;
2023/01/01 11:45:50;;;;;;;;;;;;;;;;;;;;;
2023/01/01 11:48:23;;;;;;;;;;;14.90;99.90;;;;;;4777063;30;20055;-89
2023/01/01 11:50:59;;;;;;;0.57;0.47;;;14.80;99.90;;;;;;4790761;30;19994;-88
2023/01/01 11:53:40;;;;;;;;;;;;;;;;;;;;;
2023/01/01 11:56:25;;;;;;;2.97;0.93;;;14.40;99.90;;;;;;4806648;29;20497;-89
2023/01/01 11:59:31;;;;;;;0.10;0.00;;;14.20;99.90;;;;;;4762103;30;20205;-89
2023/01/01 12:12:45;;;;;;;;;;;;;;;;;;;;;
2023/01/01 12:22:56;;;;;;;;;;;;;;;;;;;;;
2023/01/01 12:26:08;;;;;;;;;;;;;;;;;;;;;
2023/01/01 12:33:08;;;;;;;;;;;;;;;;;;;;;
2023/01/01 12:36:02;;;;;;;0.40;0.40;;;13.50;99.90;;;;;;4776592;30;20047;-89
2023/01/01 12:38:57;;;;;;;0.00;0.00;;;13.30;99.90;;;;;;4792658;30;20094;-91
2023/01/01 12:41:51;;;;;;;;;;;;;;;;;;;;;
2023/01/01 12:44:25;;;;;;;0.20;0.13;;;13.20;99.90;;;;;;4827369;29;20043;-90
2023/01/01 12:47:31;;;;;;;;;;;;;;;;;;;;;
2023/01/01 12:50:19;;;;;;;0.00;0.00;;;13.20;99.90;;;;;;4825330;29;20079;-88
2023/01/01 12:53:35;;;;;;;0.20;0.20;;;13.10;99.90;;;;;;4788148;30;20073;-87
2023/01/01 12:56:27;;;;;;;;;;;;;;;;;;;;;
2023/01/01 13:02:43;;;;;;;0.20;0.20;;;13.00;99.90;;;;;;4768224;30;20074;-92
2023/01/01 13:05:59;;;;;;;0.00;0.00;;;13.00;99.90;;;;;;4761210;30;20101;-92
2023/01/01 13:08:36;;;;;;;0.00;0.00;;;13.00;99.90;;;;;;4771133;30;20069;-87
2023/01/01 13:14:27;;;;;;;;;;;;;;;;;;;;;
2023/01/01 13:17:19;;;;;;;0.00;0.00;;;12.90;99.90;;;;;;4775958;30;20416;-90
2023/01/01 13:20:34;;;;;;;0.00;0.00;;;12.90;99.90;;;;;;4791532;29;20412;-92
2023/01/01 13:30:06;;;;;;;0.00;0.00;;;12.90;99.90;;;;;;4783802;29;20067;-88
2023/01/01 13:33:27;;;;;;;;;;;;;;;;;;;;;
2023/01/01 13:36:30;;;;;;;;;;;;;;;;;;;;;
2023/01/01 13:46:53;;;;;;;;;;;;;;;;;;;;;
2023/01/01 13:49:48;;;;;;;;;;;;;;;;;;;;;
2023/01/01 13:53:14;;;;;;;0.00;0.00;;;12.80;99.90;;;;;;4838414;29;20068;-91
2023/01/01 13:55:57;;;;;;;0.00;0.00;;;12.80;99.90;;;;;;4792354;29;20111;-89
2023/01/01 13:58:46;;;;;;;0.00;0.00;;;12.80;99.90;;;;;;4776322;30;20083;-89
2023/01/01 14:02:11;;;;;;;;;;;;;;;;;;;;;
2023/01/01 14:05:36;;;;;;;0.00;0.00;;;12.80;99.90;;;;;;4793755;29;20137;-90
2023/01/01 14:09:03;;;;;;;;;;;;;;;;;;;;;
2023/01/01 14:19:06;;;;;;;;;;;;;;;;;;;;;
2023/01/01 14:21:50;;;;;;;;;;;;;;;;;;;;;
2023/01/01 14:24:38;;;;;;;;;;;;;;;;;;;;;
2023/01/01 14:27:37;;;;;;;;;;;;;;;;;;;;;
2023/01/01 14:30:44;;;;;;;;;;;;;;;;;;;;;
2023/01/01 14:33:50;;;;;;;;;;;;;;;;;;;;;
2023/01/01 14:39:43;;;;;;;0.00;0.00;;;12.60;99.90;;;;;;4777017;29;20061;-88
2023/01/01 14:42:18;;;;;;;0.43;0.15;;;12.50;99.90;;;;;;4773325;30;20151;-88
2023/01/01 14:44:49;;;;;;;0.00;0.00;;;12.50;99.90;;;;;;4773213;30;20125;-88
2023/01/01 14:47:46;;;;;;;;;;;;;;;;;;;;;
2023/01/01 14:50:34;;;;;;;0.55;0.55;;;12.50;99.90;;;;;;4773082;30;20081;-89
2023/01/01 14:53:20;;;;;;;0.00;0.00;;;12.50;99.90;;;;;;4771968;30;20083;-88
2023/01/01 14:56:04;;;;;;;;;;;;;;;;;;;;;
2023/01/01 14:58:49;;;;;;;;;;;;;;;;;;;;;
2023/01/01 15:01:30;;;;;;;0.00;0.00;;;12.60;99.90;;;;;;4773966;30;20057;-88
2023/01/01 15:04:30;;;;;;;;;;;;;;;;;;;;;
2023/01/01 15:07:05;;;;;;;0.10;0.10;;;12.40;99.90;;;;;;4774110;30;20055;-88
2023/01/01 15:24:11;;;;;;;0.00;0.00;;;12.30;99.90;;;;;;4701205;30;20088;-92
2023/01/01 15:27:32;;;;;;;;;;;;;;;;;;;;;
2023/01/01 15:30:55;;;;;;;;;;;;;;;;;;;;;
2023/01/01 15:50:49;;;;;;;0.00;0.00;;;12.10;99.90;;;;;;4737666;30;20151;-90
2023/01/01 15:53:59;;;;;;;0.30;0.30;;;12.00;99.90;;;;;;4723679;30;20098;-88
2023/01/01 15:56:57;;;;;;;;;;;;;;;;;;;;;
2023/01/01 15:59:56;;;;;;;;;;;;;;;;;;;;;
2023/01/01 16:02:29;;;;;;;;;;;;;;;;;;;;;
2023/01/01 16:05:45;;;;;;;;;;;;;;;;;;;;;
2023/01/01 16:08:49;;;;;;;;;;;;;;;;;;;;;
2023/01/01 16:19:03;;;;;;;;;;;;;;;;;;;;;
2023/01/01 16:24:43;;;;;;;1.38;0.00;;;12.00;99.90;;;;;;4794361;29;20055;-90
2023/01/01 16:27:43;;;;;;;;;;;;;;;;;;;;;
2023/01/01 16:30:22;;;;;;;0.10;0.10;;;12.10;99.90;;;;;;4795447;29;20079;-90
2023/01/01 16:32:53;;;;;;;0.00;0.00;;;12.00;99.90;;;;;;4808726;29;20108;-89
2023/01/01 16:35:25;;;;;;;0.00;0.00;;;12.00;99.90;;;;;;4793615;29;20059;-89
2023/01/01 16:38:20;;;;;;;0.20;0.20;;;12.00;99.90;;;;;;4779074;29;20381;-89
2023/01/01 16:41:00;;;;;;;;;;;;;;;;;;;;;
2023/01/01 16:43:45;;;;;;;;;;;;;;;;;;;;;
2023/01/01 16:46:16;;;;;;;0.70;0.70;;;12.00;99.90;;;;;;4779949;29;20101;-89
2023/01/01 16:49:05;;;;;;;;;;;;;;;;;;;;;
2023/01/01 16:52:01;;;;;;;0.98;0.17;;;12.00;99.90;;;;;;4780579;29;20086;-90
2023/01/01 16:54:46;;;;;;;;;;;;;;;;;;;;;
2023/01/01 16:57:12;;;;;;;;;;;11.90;99.90;;;;;;4779445;29;20065;-90
2023/01/01 17:28:37;;;;;;;0.73;0.40;;;11.90;99.90;;;;;;5969149;22;5903293;-90
2023/01/01 17:31:46;;;;;;;0.65;0.45;;;11.90;99.90;;;;;;6146090;23;20025;-90
2023/01/01 17:35:05;;;;;;;;;;;;;;;;;;;;;
2023/01/01 17:38:44;;;;;;;;;;;;;;;;;;;;;
2023/01/01 17:41:52;;;;;;;;;;;;;;;;;;;;;
2023/01/01 17:44:52;;;;;;;0.10;0.10;;;12.00;99.90;;;;;;6111480;23;20018;-93
2023/01/01 17:47:32;;;;;;;;;;;;;;;;;;;;;
2023/01/01 17:50:42;;;;;;;;;;;;;;;;;;;;;
2023/01/01 18:00:25;;;;;;;0.40;0.40;;;12.10;99.90;;;;;;5942591;23;20059;-92
2023/01/01 18:06:37;;;;;;;;;;;;;;;;;;;;;
2023/01/01 18:13:14;;;;;;;;;;;;;;;;;;;;;
2023/01/01 18:15:56;;;;;;;0.20;0.08;;;12.00;99.90;;;;;;6052812;23;20599;-90
2023/01/01 18:18:34;;;;;;;0.00;0.00;;;12.00;99.90;;;;;;6137480;23;20021;-91
2023/01/01 18:27:13;;;;;;;;;;;;;;;;;;;;;
2023/01/01 18:30:28;;;;;;;;;;;;;;;;;;;;;
2023/01/01 18:37:30;;;;;;;0.43;0.20;;;11.90;99.90;;;;;;5929287;24;20394;-92
2023/01/01 18:40:32;;;;;;;;;;;;;;;;;;;;;
2023/01/01 18:51:04;;;;;;;0.00;0.00;;;12.00;99.90;;;;;;6045465;23;20031;-87
2023/01/01 18:53:44;;;;;;;0.63;0.35;;;11.90;99.90;;;;;;6099429;23;20063;-90
2023/01/01 18:56:36;;;;;;;0.20;0.17;;;11.90;99.90;;;;;;6133170;23;20021;-90
2023/01/01 18:59:32;;;;;;;0.05;0.05;;;11.90;99.90;;;;;;6109582;23;20025;-90
2023/01/01 19:02:12;;;;;;;0.20;0.00;;;11.90;99.90;;;;;;6109022;23;20001;-90
2023/01/01 19:04:43;;;;;;;0.05;0.05;;;11.90;99.90;;;;;;6085864;23;20010;-89
2023/01/01 19:10:26;;;;;;;0.00;0.00;;;11.90;99.90;;;;;;6133311;23;20052;-88
2023/01/01 19:13:14;;;;;;;0.30;0.30;;;11.90;99.90;;;;;;6108215;23;20018;-88
2023/01/01 19:15:40;;;;;;;;;;;11.90;99.90;;;;;;6109048;23;20022;-89
2023/01/01 19:18:22;;;;;;;0.00;0.00;;;11.90;99.90;;;;;;6108617;23;19925;-90
2023/01/01 19:21:13;;;;;;;0.05;0.00;;;11.80;99.90;;;;;;6107850;23;20076;-88
2023/01/01 19:23:55;;;;;;;0.00;0.00;;;11.80;99.90;;;;;;6129258;23;20456;-89
2023/01/01 19:26:47;;;;;;;0.08;0.03;;;11.80;99.90;;;;;;6109459;23;20060;-90
2023/01/01 19:29:29;;;;;;;15.10;0.70;;;11.80;99.90;;;;;;6133865;23;20056;-90
2023/01/01 19:32:34;;;;;;;;;;;;;;;;;;;;;
2023/01/01 19:35:23;;;;;;;;;;;;;;;;;;;;;
2023/01/01 19:37:49;;;;;;;0.00;0.00;;;11.70;99.90;;;;;;6164875;23;20017;-90
2023/01/01 19:40:22;;;;;;;0.28;0.20;;;11.60;99.90;;;;;;6136648;23;20458;-89